createdAt,value
2023-06-27T00:02:08.566Z,65.98
2023-06-27T00:04:36.635Z,65.93
2023-06-27T00:07:05.171Z,65.70
2023-06-27T00:09:33.164Z,65.87
2023-06-27T00:12:01.180Z,65.87
2023-06-27T00:14:29.305Z,65.89
2023-06-27T00:16:58.537Z,66.10
2023-06-27T00:19:26.918Z,66.01
2023-06-27T00:21:56.593Z,66.09
2023-06-27T00:24:24.992Z,66.03
2023-06-27T00:26:52.980Z,66.04
2023-06-27T00:29:21.295Z,66.23
2023-06-27T00:31:49.313Z,66.43
2023-06-27T00:34:17.281Z,66.09
2023-06-27T00:36:45.261Z,66.11
2023-06-27T00:39:13.254Z,66.06
2023-06-27T00:41:41.248Z,66.01
2023-06-27T00:44:09.697Z,65.94
2023-06-27T00:46:39.244Z,65.95
2023-06-27T00:49:09.500Z,66.03
2023-06-27T00:51:39.643Z,65.76
2023-06-27T00:54:08.117Z,65.89
2023-06-27T00:56:36.473Z,65.86
2023-06-27T00:59:06.119Z,65.73
2023-06-27T01:01:34.964Z,65.70
2023-06-27T01:04:04.740Z,65.71
2023-06-27T01:06:53.714Z,65.76
2023-06-27T01:09:43.690Z,65.60
2023-06-27T01:12:20.546Z,65.62
2023-06-27T01:14:50.251Z,65.49
2023-06-27T01:17:21.335Z,65.31
2023-06-27T01:19:53.559Z,65.47
2023-06-27T01:22:34.250Z,65.55
2023-06-27T01:25:04.188Z,65.28
2023-06-27T01:27:32.217Z,65.49
2023-06-27T01:30:00.414Z,65.29
2023-06-27T01:32:45.875Z,65.37
2023-06-27T01:35:16.268Z,65.35
2023-06-27T01:37:59.251Z,65.21
2023-06-27T01:40:29.814Z,65.26
2023-06-27T01:43:10.322Z,65.24
2023-06-27T01:45:40.556Z,65.37
2023-06-27T01:48:09.362Z,65.44
2023-06-27T01:50:37.568Z,65.63
2023-06-27T01:53:06.390Z,65.46
2023-06-27T01:55:34.409Z,65.61
2023-06-27T01:58:02.694Z,65.60
2023-06-27T02:00:30.760Z,65.55
2023-06-27T02:02:59.695Z,65.86
2023-06-27T02:05:27.948Z,65.88
2023-06-27T02:07:56.041Z,65.81
2023-06-27T02:10:26.165Z,65.89
2023-06-27T02:12:54.361Z,65.88
2023-06-27T02:15:22.667Z,65.87
2023-06-27T02:17:50.719Z,65.90
2023-06-27T02:20:18.810Z,66.01
2023-06-27T02:22:46.829Z,66.08
2023-06-27T02:25:14.904Z,66.03
2023-06-27T02:27:42.881Z,66.24
2023-06-27T02:30:13.260Z,66.16
2023-06-27T02:32:41.308Z,66.17
2023-06-27T02:35:09.779Z,66.29
2023-06-27T02:37:37.791Z,66.42
2023-06-27T02:40:06.700Z,66.38
2023-06-27T02:42:34.801Z,66.30
2023-06-27T02:45:02.888Z,66.68
2023-06-27T02:47:30.998Z,66.51
2023-06-27T02:49:59.112Z,66.58
2023-06-27T02:52:27.344Z,66.76
2023-06-27T02:54:55.417Z,66.73
2023-06-27T02:57:23.959Z,66.66
2023-06-27T02:59:52.090Z,66.75
2023-06-27T03:02:20.329Z,66.77
2023-06-27T03:04:51.181Z,66.70
2023-06-27T03:07:19.698Z,66.57
2023-06-27T03:09:47.814Z,66.59
2023-06-27T03:12:16.441Z,66.60
2023-06-27T03:14:45.063Z,66.62
2023-06-27T03:17:13.472Z,66.70
2023-06-27T03:19:45.033Z,66.69
2023-06-27T03:22:14.946Z,66.59
2023-06-27T03:24:43.077Z,66.43
2023-06-27T03:27:11.259Z,66.05
2023-06-27T03:29:41.461Z,65.82
2023-06-27T03:32:11.865Z,65.56
2023-06-27T03:34:41.938Z,65.50
2023-06-27T03:37:10.590Z,65.47
2023-06-27T03:39:40.185Z,65.54
2023-06-27T03:42:08.761Z,65.19
2023-06-27T03:44:36.845Z,65.05
2023-06-27T03:47:05.763Z,64.99
2023-06-27T03:49:34.965Z,64.83
2023-06-27T03:52:03.355Z,64.56
2023-06-27T03:54:31.775Z,64.24
2023-06-27T03:56:59.960Z,64.04
2023-06-27T03:59:28.005Z,63.83
2023-06-27T04:01:56.124Z,63.65
2023-06-27T04:04:24.277Z,63.39
2023-06-27T04:06:52.454Z,63.11
2023-06-27T04:09:20.531Z,62.89
2023-06-27T04:11:48.538Z,62.68
2023-06-27T04:14:18.507Z,62.44
2023-06-27T04:16:46.686Z,62.21
2023-06-27T04:19:14.845Z,62.01
2023-06-27T04:21:43.673Z,61.59
2023-06-27T04:24:12.016Z,61.37
2023-06-27T04:26:40.071Z,60.95
2023-06-27T04:29:08.058Z,60.27
2023-06-27T04:31:36.187Z,60.20
2023-06-27T04:34:04.522Z,60.07
2023-06-27T04:36:32.653Z,59.86
2023-06-27T04:39:01.372Z,59.53
2023-06-27T04:41:30.442Z,59.16
2023-06-27T04:44:00.214Z,59.01
2023-06-27T04:46:29.881Z,58.61
2023-06-27T04:48:58.243Z,58.20
2023-06-27T04:51:29.914Z,58.26
2023-06-27T04:53:57.920Z,58.28
2023-06-27T04:56:27.944Z,57.92
2023-06-27T04:58:56.093Z,57.50
2023-06-27T05:01:24.384Z,57.18
2023-06-27T05:03:53.904Z,56.79
2023-06-27T05:06:22.030Z,56.71
2023-06-27T05:08:50.156Z,56.41
2023-06-27T05:11:18.140Z,56.06
2023-06-27T05:13:48.759Z,55.76
2023-06-27T05:16:16.886Z,56.05
2023-06-27T05:18:45.077Z,55.63
2023-06-27T05:21:13.166Z,55.44
2023-06-27T05:23:41.318Z,54.50
2023-06-27T05:26:09.301Z,54.42
2023-06-27T05:28:37.377Z,54.12
2023-06-27T05:31:05.568Z,53.97
2023-06-27T05:33:33.647Z,53.97
2023-06-27T05:36:01.690Z,53.80
2023-06-27T05:38:29.826Z,53.86
2023-06-27T05:40:57.874Z,53.72
2023-06-27T05:43:25.947Z,53.67
2023-06-27T05:45:54.132Z,53.63
2023-06-27T05:48:22.140Z,53.23
2023-06-27T05:50:50.195Z,52.85
2023-06-27T05:53:18.193Z,52.91
2023-06-27T05:55:46.199Z,52.70
2023-06-27T05:58:14.219Z,52.47
2023-06-27T06:00:42.204Z,52.18
2023-06-27T06:03:10.378Z,52.08
2023-06-27T06:05:38.896Z,51.93
2023-06-27T06:08:07.118Z,51.89
2023-06-27T06:10:35.159Z,51.90
2023-06-27T06:13:03.181Z,51.43
2023-06-27T06:15:31.263Z,51.09
2023-06-27T06:17:59.457Z,51.10
2023-06-27T06:20:30.382Z,50.80
2023-06-27T06:23:00.758Z,50.50
2023-06-27T06:25:29.031Z,49.61
2023-06-27T06:27:57.022Z,49.58
2023-06-27T06:30:25.146Z,49.52
2023-06-27T06:32:53.275Z,49.58
2023-06-27T06:35:21.431Z,49.41
2023-06-27T06:37:49.594Z,49.39
2023-06-27T06:40:17.809Z,49.02
2023-06-27T06:42:45.853Z,48.50
2023-06-27T06:45:14.008Z,47.94
2023-06-27T06:47:42.101Z,47.24
2023-06-27T06:50:10.519Z,46.85
2023-06-27T06:52:38.669Z,47.45
2023-06-27T06:55:07.839Z,47.35
2023-06-27T06:57:36.032Z,47.28
2023-06-27T07:00:05.611Z,46.99
2023-06-27T07:02:33.664Z,46.49
2023-06-27T07:05:02.136Z,45.17
2023-06-27T07:07:30.478Z,45.72
2023-06-27T07:09:58.973Z,46.07
2023-06-27T07:12:26.999Z,45.89
2023-06-27T07:14:55.295Z,45.44
2023-06-27T07:17:23.396Z,45.41
2023-06-27T07:19:51.478Z,45.38
2023-06-27T07:22:21.366Z,45.39
2023-06-27T07:24:50.209Z,45.62
2023-06-27T07:27:18.265Z,46.10
2023-06-27T07:29:46.273Z,45.95
2023-06-27T07:32:14.750Z,45.82
2023-06-27T07:34:42.754Z,46.10
2023-06-27T07:37:10.806Z,46.42
2023-06-27T07:39:38.840Z,46.59
2023-06-27T07:42:07.370Z,46.52
2023-06-27T07:44:36.240Z,46.03
2023-06-27T07:47:04.425Z,45.10
2023-06-27T07:49:32.923Z,45.56
2023-06-27T07:52:01.128Z,45.17
2023-06-27T07:54:29.212Z,45.09
2023-06-27T07:56:57.858Z,45.05
2023-06-27T07:59:25.948Z,44.86
2023-06-27T08:01:55.805Z,43.47
2023-06-27T08:04:24.114Z,43.56
2023-06-27T08:06:52.472Z,42.48
2023-06-27T08:09:23.852Z,42.35
2023-06-27T08:11:52.645Z,42.44
2023-06-27T08:14:20.930Z,43.07
2023-06-27T08:16:48.978Z,42.83
2023-06-27T08:19:17.062Z,43.02
2023-06-27T08:21:45.041Z,43.16
2023-06-27T08:24:13.079Z,42.14
2023-06-27T08:26:41.141Z,42.09
2023-06-27T08:29:09.181Z,41.48
2023-06-27T08:31:37.298Z,41.32
2023-06-27T08:34:05.320Z,41.46
2023-06-27T08:36:33.380Z,41.74
2023-06-27T08:39:01.501Z,41.56
2023-06-27T08:41:29.819Z,41.50
2023-06-27T08:43:57.940Z,42.07
2023-06-27T08:46:29.021Z,42.48
2023-06-27T08:48:58.489Z,42.52
2023-06-27T08:51:27.483Z,42.04
2023-06-27T08:53:58.824Z,40.56
2023-06-27T08:56:28.049Z,40.36
2023-06-27T08:59:02.679Z,41.01
2023-06-27T09:01:35.114Z,41.61
2023-06-27T09:04:04.502Z,41.73
2023-06-27T09:06:32.754Z,41.69
2023-06-27T09:09:01.003Z,41.50
2023-06-27T09:11:29.470Z,41.50
2023-06-27T09:13:57.517Z,41.59
2023-06-27T09:16:25.748Z,41.87
2023-06-27T09:18:55.892Z,41.86
2023-06-27T09:21:25.362Z,41.05
2023-06-27T09:23:54.441Z,40.03
2023-06-27T09:26:22.518Z,40.92
2023-06-27T09:28:52.144Z,40.79
2023-06-27T09:31:21.689Z,40.44
2023-06-27T09:33:52.589Z,40.84
2023-06-27T09:39:11.032Z,41.00
2023-06-27T09:41:50.155Z,41.21
2023-06-27T09:44:22.996Z,41.25
2023-06-27T09:46:55.065Z,41.49
2023-06-27T09:49:26.264Z,41.69
2023-06-27T09:51:55.320Z,42.10
2023-06-27T09:54:24.084Z,42.28
2023-06-27T09:56:53.081Z,41.61
2023-06-27T09:59:25.157Z,41.61
2023-06-27T10:01:55.305Z,41.60
2023-06-27T10:04:39.176Z,41.32
2023-06-27T10:07:14.775Z,41.45
2023-06-27T10:09:43.594Z,41.32
2023-06-27T10:12:11.835Z,40.58
2023-06-27T10:14:40.206Z,41.10
2023-06-27T10:17:09.143Z,40.76
2023-06-27T10:19:38.895Z,39.80
2023-06-27T10:22:12.166Z,40.58
2023-06-27T10:24:41.920Z,40.49
2023-06-27T10:27:11.241Z,40.42
2023-06-27T10:29:43.885Z,40.69
2023-06-27T10:32:12.364Z,40.86
2023-06-27T10:34:44.520Z,40.50
2023-06-27T10:37:21.705Z,40.34
2023-06-27T10:40:05.461Z,40.49
2023-06-27T10:42:33.551Z,40.42
2023-06-27T10:45:02.841Z,39.72
2023-06-27T10:47:40.082Z,38.30
2023-06-27T10:50:11.525Z,37.84
2023-06-27T10:52:41.233Z,38.25
2023-06-27T10:55:15.294Z,38.55
2023-06-27T10:57:49.617Z,38.51
2023-06-27T11:00:35.594Z,38.66
2023-06-27T11:03:05.909Z,38.98
2023-06-27T11:05:39.000Z,39.54
2023-06-27T11:08:10.404Z,38.66
2023-06-27T11:10:48.760Z,38.49
2023-06-27T11:13:25.314Z,38.89
2023-06-27T11:15:55.374Z,38.38
2023-06-27T11:18:27.505Z,36.80
2023-06-27T11:20:56.601Z,36.81
2023-06-27T11:23:26.751Z,37.23
2023-06-27T11:25:55.290Z,36.93
2023-06-27T11:28:24.962Z,36.97
2023-06-27T11:31:00.592Z,37.47
2023-06-27T11:33:29.248Z,37.37
2023-06-27T11:36:01.319Z,36.99
2023-06-27T11:38:30.283Z,36.83
2023-06-27T11:40:58.712Z,36.64
2023-06-27T11:43:28.640Z,36.61
2023-06-27T11:45:58.931Z,36.66
2023-06-27T11:48:28.781Z,37.20
2023-06-27T11:50:59.826Z,37.48
2023-06-27T11:53:28.663Z,37.78
2023-06-27T11:58:33.807Z,38.48
2023-06-27T12:01:02.200Z,38.56
2023-06-27T12:03:34.454Z,39.05
2023-06-27T12:06:02.626Z,39.11
2023-06-27T12:08:35.096Z,39.33
2023-06-27T12:11:04.442Z,39.83
2023-06-27T12:13:38.651Z,39.15
2023-06-27T12:16:07.051Z,38.83
2023-06-27T12:18:35.163Z,39.17
2023-06-27T12:21:03.281Z,38.92
2023-06-27T12:23:31.495Z,38.86
2023-06-27T12:25:59.643Z,38.57
2023-06-27T12:28:28.132Z,38.31
2023-06-27T12:30:56.466Z,38.23
2023-06-27T12:33:25.800Z,38.29
2023-06-27T12:35:53.893Z,38.33
2023-06-27T12:38:21.971Z,38.93
2023-06-27T12:40:49.953Z,38.90
2023-06-27T12:43:18.206Z,38.22
2023-06-27T12:46:00.218Z,38.49
2023-06-27T12:48:28.339Z,38.39
2023-06-27T12:50:56.486Z,38.76
2023-06-27T12:53:24.572Z,38.67
2023-06-27T12:55:53.155Z,38.19
2023-06-27T12:58:21.236Z,38.92
2023-06-27T13:00:49.364Z,39.01
2023-06-27T13:03:19.432Z,38.86
2023-06-27T13:05:48.208Z,38.92
2023-06-27T13:08:20.837Z,38.87
2023-06-27T13:10:50.244Z,39.12
2023-06-27T13:13:18.449Z,39.36
2023-06-27T13:15:56.670Z,39.27
2023-06-27T13:18:33.369Z,39.51
2023-06-27T13:21:01.471Z,38.87
2023-06-27T13:23:30.023Z,39.04
2023-06-27T13:25:58.065Z,39.45
2023-06-27T13:28:28.237Z,39.66
2023-06-27T13:30:56.864Z,39.82
2023-06-27T13:33:25.648Z,39.63
2023-06-27T13:35:53.902Z,39.63
2023-06-27T13:38:21.959Z,39.93
2023-06-27T13:40:50.179Z,40.06
2023-06-27T13:43:18.236Z,40.13
2023-06-27T13:45:48.270Z,39.89
2023-06-27T13:48:16.464Z,39.99
2023-06-27T13:50:44.615Z,40.18
2023-06-27T13:53:14.056Z,40.39
2023-06-27T13:55:42.199Z,40.31
2023-06-27T13:58:10.260Z,40.12
2023-06-27T14:00:38.515Z,40.37
2023-06-27T14:03:06.867Z,40.37
2023-06-27T14:05:36.152Z,40.14
2023-06-27T14:08:04.323Z,40.55
2023-06-27T14:10:32.576Z,40.40
2023-06-27T14:13:00.894Z,40.34
2023-06-27T14:15:29.140Z,39.94
2023-06-27T14:17:57.486Z,39.74
2023-06-27T14:20:25.625Z,40.00
2023-06-27T14:22:55.210Z,39.72
2023-06-27T14:25:23.529Z,39.79
2023-06-27T14:27:52.911Z,39.90
2023-06-27T14:30:21.089Z,40.03
2023-06-27T14:32:50.452Z,39.83
2023-06-27T14:35:18.718Z,39.62
2023-06-27T14:37:46.849Z,39.19
2023-06-27T14:40:15.219Z,39.41
2023-06-27T14:42:43.481Z,39.51
2023-06-27T14:45:12.048Z,39.65
2023-06-27T14:47:40.336Z,39.51
2023-06-27T14:50:08.776Z,39.53
2023-06-27T14:52:37.396Z,39.34
2023-06-27T14:55:06.007Z,39.20
2023-06-27T14:57:34.062Z,39.31
2023-06-27T15:00:02.213Z,39.43
2023-06-27T15:02:30.462Z,39.97
2023-06-27T15:05:08.495Z,40.01
2023-06-27T15:07:36.656Z,40.10
2023-06-27T15:10:05.470Z,40.92
2023-06-27T15:12:33.952Z,41.93
2023-06-27T15:15:05.311Z,43.15
2023-06-27T15:17:34.224Z,44.46
2023-06-27T15:20:03.588Z,46.53
2023-06-27T15:22:32.504Z,49.06
2023-06-27T15:25:00.644Z,49.45
2023-06-27T15:27:28.894Z,49.50
2023-06-27T15:29:57.074Z,49.82
2023-06-27T15:32:25.152Z,50.32
2023-06-27T15:34:53.242Z,50.58
2023-06-27T15:37:21.356Z,50.82
2023-06-27T15:39:54.773Z,51.18
2023-06-27T15:42:23.316Z,51.47
2023-06-27T15:44:51.476Z,52.21
2023-06-27T15:47:20.554Z,52.87
2023-06-27T15:49:48.880Z,54.30
2023-06-27T15:52:17.041Z,55.03
2023-06-27T15:54:45.097Z,55.26
2023-06-27T15:57:13.131Z,55.18
2023-06-27T15:59:41.322Z,55.10
2023-06-27T16:02:09.391Z,55.30
2023-06-27T16:04:37.604Z,55.37
2023-06-27T16:07:05.823Z,56.05
2023-06-27T16:09:35.342Z,55.87
2023-06-27T16:12:03.664Z,56.19
2023-06-27T16:14:31.885Z,56.68
2023-06-27T16:16:59.917Z,56.21
2023-06-27T16:19:28.000Z,57.19
2023-06-27T16:21:56.119Z,57.48
2023-06-27T16:24:24.193Z,57.58
2023-06-27T16:26:52.275Z,57.34
2023-06-27T16:29:21.029Z,57.03
2023-06-27T16:31:50.092Z,56.89
2023-06-27T16:34:18.552Z,56.75
2023-06-27T16:36:46.653Z,56.78
2023-06-27T16:39:14.654Z,57.08
2023-06-27T16:41:42.678Z,57.11
2023-06-27T16:44:11.884Z,57.12
2023-06-27T16:46:40.128Z,56.90
2023-06-27T16:49:08.273Z,56.86
2023-06-27T16:51:36.449Z,57.14
2023-06-27T16:54:04.563Z,56.92
2023-06-27T16:56:32.939Z,57.29
2023-06-27T16:59:01.076Z,57.39
2023-06-27T17:01:29.239Z,57.51
2023-06-27T17:03:57.368Z,57.57
2023-06-27T17:06:25.535Z,57.83
2023-06-27T17:08:53.648Z,57.87
2023-06-27T17:11:21.760Z,57.76
2023-06-27T17:13:49.871Z,57.81
2023-06-27T17:16:18.037Z,57.97
2023-06-27T17:18:46.075Z,58.05
2023-06-27T17:21:14.194Z,58.20
2023-06-27T17:23:42.247Z,58.31
2023-06-27T17:26:11.681Z,58.71
2023-06-27T17:28:39.958Z,58.54
2023-06-27T17:31:08.180Z,58.55
2023-06-27T17:33:37.804Z,58.46
2023-06-27T17:36:06.168Z,58.70
2023-06-27T17:38:34.247Z,58.78
2023-06-27T17:41:02.336Z,58.90
2023-06-27T17:43:30.587Z,58.74
2023-06-27T17:45:58.676Z,58.84
2023-06-27T17:48:26.911Z,59.12
2023-06-27T17:50:55.102Z,59.57
2023-06-27T17:53:23.133Z,59.72
2023-06-27T17:55:51.286Z,59.73
2023-06-27T17:58:19.269Z,59.72
2023-06-27T18:00:47.340Z,59.97
2023-06-27T18:03:15.442Z,60.28
2023-06-27T18:05:45.091Z,60.29
2023-06-27T18:08:18.015Z,59.98
2023-06-27T18:10:46.165Z,60.27
2023-06-27T18:13:14.264Z,60.58
2023-06-27T18:15:42.794Z,60.63
2023-06-27T18:18:10.978Z,60.63
2023-06-27T18:20:40.634Z,60.65
2023-06-27T18:23:09.895Z,60.69
2023-06-27T18:25:38.132Z,60.67
2023-06-27T18:28:06.376Z,61.38
2023-06-27T18:30:35.552Z,61.47
2023-06-27T18:33:06.027Z,61.43
2023-06-27T18:35:36.049Z,61.21
2023-06-27T18:38:04.051Z,61.12
2023-06-27T18:40:32.208Z,61.24
2023-06-27T18:43:00.284Z,61.54
2023-06-27T18:45:29.510Z,61.80
2023-06-27T18:47:58.384Z,62.11
2023-06-27T18:50:26.497Z,62.45
2023-06-27T18:52:54.571Z,62.48
2023-06-27T18:55:24.811Z,62.59
2023-06-27T18:57:52.922Z,62.87
2023-06-27T19:00:21.099Z,62.66
2023-06-27T19:02:49.265Z,63.03
2023-06-27T19:05:17.522Z,62.84
2023-06-27T19:07:46.080Z,62.94
2023-06-27T19:10:14.348Z,63.27
2023-06-27T19:12:42.480Z,63.19
2023-06-27T19:15:10.910Z,63.53
2023-06-27T19:17:39.920Z,63.67
2023-06-27T19:20:09.503Z,64.11
2023-06-27T19:22:38.037Z,64.87
2023-06-27T19:25:06.376Z,65.41
2023-06-27T19:27:34.738Z,65.28
2023-06-27T19:30:02.811Z,65.15
2023-06-27T19:32:30.980Z,64.97
2023-06-27T19:34:59.107Z,64.94
2023-06-27T19:37:27.320Z,64.56
2023-06-27T19:39:55.337Z,64.30
2023-06-27T19:42:23.398Z,64.12
2023-06-27T19:44:51.943Z,63.92
2023-06-27T19:47:20.515Z,63.71
2023-06-27T19:49:50.185Z,63.79
2023-06-27T19:52:18.622Z,63.73
2023-06-27T19:54:46.721Z,63.44
2023-06-27T19:57:15.347Z,63.47
2023-06-27T19:59:43.414Z,63.32
2023-06-27T20:02:11.443Z,63.05
2023-06-27T20:04:39.981Z,63.18
2023-06-27T20:07:08.297Z,63.25
2023-06-27T20:09:36.474Z,63.24
2023-06-27T20:12:04.830Z,63.59
2023-06-27T20:14:35.405Z,63.45
2023-06-27T20:17:03.656Z,63.57
2023-06-27T20:19:31.758Z,63.72
2023-06-27T20:21:59.768Z,63.66
2023-06-27T20:24:28.487Z,63.63
2023-06-27T20:26:56.713Z,63.79
2023-06-27T20:29:24.862Z,63.76
2023-06-27T20:31:52.966Z,63.64
2023-06-27T20:34:21.007Z,63.50
2023-06-27T20:36:49.101Z,63.42
2023-06-27T20:39:17.167Z,63.25
2023-06-27T20:41:45.177Z,63.22
2023-06-27T20:44:14.417Z,63.06
2023-06-27T20:46:42.456Z,62.97
2023-06-27T20:49:10.746Z,63.05
2023-06-27T20:51:39.971Z,63.12
2023-06-27T20:54:08.525Z,63.34
2023-06-27T20:56:36.597Z,63.31
2023-06-27T20:59:04.587Z,63.34
2023-06-27T21:01:35.362Z,63.41
2023-06-27T21:04:05.226Z,63.40
2023-06-27T21:06:33.449Z,63.35
2023-06-27T21:09:01.488Z,63.38
2023-06-27T21:11:29.593Z,63.28
2023-06-27T21:13:57.601Z,63.11
2023-06-27T21:16:25.631Z,63.12
2023-06-27T21:18:56.001Z,63.03
2023-06-27T21:21:24.204Z,63.01
2023-06-27T21:23:52.612Z,63.00
2023-06-27T21:26:20.935Z,62.96
2023-06-27T21:28:49.036Z,63.02
2023-06-27T21:31:18.168Z,63.18
2023-06-27T21:33:46.300Z,62.99
2023-06-27T21:36:14.346Z,63.07
2023-06-27T21:38:42.361Z,63.31
2023-06-27T21:41:10.354Z,63.18
2023-06-27T21:43:38.363Z,63.27
2023-06-27T21:46:06.436Z,63.40
2023-06-27T21:48:34.469Z,63.60
2023-06-27T21:51:02.868Z,63.48
2023-06-27T21:53:31.599Z,63.61
2023-06-27T21:56:01.018Z,63.63
2023-06-27T21:58:29.485Z,63.58
2023-06-27T22:00:57.532Z,63.75
2023-06-27T22:03:25.689Z,63.97
2023-06-27T22:05:53.808Z,64.29
2023-06-27T22:08:21.908Z,64.34
2023-06-27T22:10:49.975Z,64.11
2023-06-27T22:13:18.072Z,63.92
2023-06-27T22:15:46.108Z,63.66
2023-06-27T22:18:14.105Z,63.53
2023-06-27T22:20:42.417Z,63.55
2023-06-27T22:23:11.325Z,63.50
2023-06-27T22:25:39.428Z,63.37
2023-06-27T22:28:07.649Z,63.29
2023-06-27T22:30:35.941Z,63.35
2023-06-27T22:33:04.088Z,63.35
2023-06-27T22:35:32.331Z,63.29
2023-06-27T22:38:00.385Z,63.23
2023-06-27T22:40:29.194Z,63.12
2023-06-27T22:42:57.209Z,63.17
2023-06-27T22:45:26.170Z,63.13
2023-06-27T22:47:54.272Z,63.10
2023-06-27T22:50:22.341Z,63.06
2023-06-27T22:52:50.380Z,63.05
2023-06-27T22:55:18.507Z,62.96
2023-06-27T22:57:46.491Z,62.95
2023-06-27T23:00:15.481Z,62.81
2023-06-27T23:02:43.537Z,62.90
2023-06-27T23:05:11.877Z,62.74
2023-06-27T23:07:40.135Z,62.67
2023-06-27T23:10:08.388Z,62.57
2023-06-27T23:12:36.784Z,62.48
2023-06-27T23:15:05.295Z,62.58
2023-06-27T23:17:34.241Z,62.53
2023-06-27T23:20:05.199Z,62.61
2023-06-27T23:22:35.348Z,62.70
2023-06-27T23:25:06.571Z,62.79
2023-06-27T23:27:36.862Z,62.86
2023-06-27T23:30:06.315Z,63.04
2023-06-27T23:32:34.356Z,63.05
2023-06-27T23:35:02.431Z,63.00
2023-06-27T23:37:30.775Z,63.07
2023-06-27T23:39:59.031Z,62.99
2023-06-27T23:42:27.061Z,62.98
2023-06-27T23:44:55.106Z,62.85
2023-06-27T23:47:23.092Z,62.90
2023-06-27T23:49:51.166Z,62.84
2023-06-27T23:52:19.252Z,63.00
2023-06-27T23:54:47.423Z,63.19
2023-06-27T23:57:15.604Z,63.31
2023-06-27T23:59:43.609Z,63.34
